Time;durP1;ratioP1;P1;durP2;ratioP2;P2;SDS_P1;SDS_P2;PMS_P1;PMS_P2;Temp;Humidity;BMP_temperature;BMP_pressure;BME280_temperature;BME280_humidity;BME280_pressure;Samples;Min_cycle;Max_cycle;Signal;HPM_P1;HPM_P2
2024/01/27 00:00:26;;;;;;;0.80;0.27;;;9.20;40.90;;;;;;5094274;28;20183;-49
2024/01/27 00:02:52;;;;;;;0.90;0.53;;;9.20;41.00;;;;;;5093974;28;20633;-48
2024/01/27 00:05:18;;;;;;;0.90;0.47;;;9.20;41.10;;;;;;5094247;28;20263;-52
2024/01/27 00:07:43;;;;;;;0.80;0.27;;;9.20;41.20;;;;;;5094482;28;20200;-46
2024/01/27 00:10:09;;;;;;;0.80;0.20;;;9.20;41.20;;;;;;5094313;28;20892;-51
2024/01/27 00:12:36;;;;;;;0.80;0.37;;;9.20;41.10;;;;;;5093618;28;20168;-47
2024/01/27 00:15:02;;;;;;;0.80;0.30;;;9.20;41.00;;;;;;5094086;28;20465;-47
2024/01/27 00:17:27;;;;;;;3.93;2.67;;;9.10;41.50;;;;;;5094060;28;20176;-51
2024/01/27 00:19:54;;;;;;;0.80;0.30;;;9.10;41.40;;;;;;5094270;28;20176;-46
2024/01/27 00:22:23;;;;;;;1.52;0.40;;;9.10;41.40;;;;;;5093678;28;20172;-46
2024/01/27 00:24:48;;;;;;;7.90;1.27;;;9.20;41.40;;;;;;5093929;28;20176;-51
2024/01/27 00:27:14;;;;;;;0.90;0.63;;;9.20;41.50;;;;;;5094163;28;20733;-47
2024/01/27 00:29:40;;;;;;;0.80;0.30;;;9.10;41.80;;;;;;5093915;28;20279;-51
2024/01/27 00:32:06;;;;;;;0.83;0.33;;;9.10;41.80;;;;;;5093429;28;20775;-46
2024/01/27 00:34:31;;;;;;;0.83;0.40;;;9.00;41.80;;;;;;5093424;28;20287;-44
2024/01/27 00:36:57;;;;;;;0.83;0.33;;;9.00;41.80;;;;;;5093767;28;20168;-52
2024/01/27 00:39:23;;;;;;;0.90;0.57;;;9.00;42.00;;;;;;5093615;28;20180;-49
2024/01/27 00:41:48;;;;;;;0.80;0.30;;;9.00;42.20;;;;;;5093171;28;20160;-46
2024/01/27 00:44:14;;;;;;;0.90;0.50;;;8.90;42.60;;;;;;5092961;28;20207;-48
2024/01/27 00:46:40;;;;;;;3.83;0.85;;;8.80;42.80;;;;;;5093363;28;20618;-47
2024/01/27 00:49:06;;;;;;;1.00;0.67;;;8.90;42.60;;;;;;5093536;28;20176;-46
2024/01/27 00:51:32;;;;;;;0.90;0.50;;;8.90;42.60;;;;;;5092832;28;20537;-51
2024/01/27 00:53:58;;;;;;;0.90;0.50;;;8.90;42.50;;;;;;5093284;28;20590;-54
2024/01/27 00:56:23;;;;;;;0.90;0.50;;;9.00;42.40;;;;;;5093128;28;20208;-46
2024/01/27 00:58:49;;;;;;;0.80;0.27;;;9.00;42.40;;;;;;5093619;28;20259;-56
2024/01/27 01:01:15;;;;;;;0.83;0.33;;;9.00;42.30;;;;;;5092894;28;20233;-50
2024/01/27 01:03:40;;;;;;;0.87;0.40;;;9.00;42.10;;;;;;5093158;28;20184;-45
2024/01/27 01:06:06;;;;;;;1.93;1.73;;;9.00;41.80;;;;;;5093275;28;20176;-49
2024/01/27 01:08:32;;;;;;;1.07;0.80;;;9.00;41.90;;;;;;5093423;28;20652;-51
2024/01/27 01:10:58;;;;;;;0.90;0.53;;;9.00;41.70;;;;;;5092486;28;20180;-51
2024/01/27 01:13:24;;;;;;;0.85;0.40;;;8.80;42.10;;;;;;5092657;28;20438;-48
2024/01/27 01:15:50;;;;;;;0.90;0.47;;;8.80;41.90;;;;;;5092852;28;20207;-53
2024/01/27 01:18:15;;;;;;;0.90;0.60;;;8.80;42.10;;;;;;5092981;28;20227;-48
2024/01/27 01:20:41;;;;;;;0.90;0.53;;;8.90;41.90;;;;;;5092898;28;20536;-48
2024/01/27 01:23:08;;;;;;;0.90;0.50;;;8.90;41.70;;;;;;5092380;28;20220;-52
2024/01/27 01:25:33;;;;;;;0.80;0.30;;;8.90;41.80;;;;;;5092620;28;20176;-49
2024/01/27 01:27:59;;;;;;;1.00;0.53;;;8.90;41.90;;;;;;5093034;28;20183;-45
2024/01/27 01:30:25;;;;;;;1.73;1.23;;;8.80;42.00;;;;;;5092748;28;20222;-50
2024/01/27 01:32:51;;;;;;;0.90;0.40;;;8.80;42.70;;;;;;5092030;28;20207;-49
2024/01/27 01:35:17;;;;;;;0.80;0.30;;;8.80;42.00;;;;;;5092680;28;20454;-47
2024/01/27 01:37:43;;;;;;;0.90;0.50;;;8.70;42.10;;;;;;5092666;28;20230;-51
2024/01/27 01:40:09;;;;;;;0.80;0.30;;;8.70;42.00;;;;;;5092524;28;20402;-46
2024/01/27 01:42:35;;;;;;;1.00;0.60;;;8.70;41.80;;;;;;5091859;28;20214;-49
2024/01/27 01:45:00;;;;;;;0.87;0.40;;;8.80;41.80;;;;;;5092706;28;20774;-50
2024/01/27 01:47:26;;;;;;;0.80;0.30;;;8.80;41.80;;;;;;5092450;28;20179;-49
2024/01/27 01:49:53;;;;;;;0.80;0.30;;;8.70;42.10;;;;;;5092417;28;20260;-49
2024/01/27 01:52:20;;;;;;;0.80;0.30;;;8.70;42.00;;;;;;5091786;28;20487;-51
2024/01/27 01:54:50;;;;;;;0.90;0.40;;;8.70;42.00;;;;;;5091985;28;20208;-48
2024/01/27 01:57:16;;;;;;;0.88;0.43;;;8.60;42.30;;;;;;5092137;28;20638;-46
2024/01/27 01:59:42;;;;;;;0.90;0.40;;;8.60;42.30;;;;;;5092224;28;20562;-48
2024/01/27 02:02:08;;;;;;;0.80;0.20;;;8.60;42.20;;;;;;5092007;28;20172;-49
2024/01/27 02:04:45;;;;;;;0.80;0.30;;;8.50;42.20;;;;;;5092210;28;20211;-49
2024/01/27 02:07:11;;;;;;;0.90;0.45;;;8.60;42.00;;;;;;5092170;28;20175;-51
2024/01/27 02:09:37;;;;;;;0.88;0.43;;;8.60;41.90;;;;;;5092034;28;20176;-52
2024/01/27 02:12:04;;;;;;;0.90;0.40;;;8.60;42.10;;;;;;5091627;28;20176;-47
2024/01/27 02:14:30;;;;;;;0.80;0.22;;;8.60;41.90;;;;;;5092001;28;20236;-51
2024/01/27 02:16:56;;;;;;;0.90;0.60;;;8.60;42.10;;;;;;5092162;28;20680;-47
2024/01/27 02:19:22;;;;;;;1.00;0.60;;;8.50;42.50;;;;;;5092045;28;20215;-48
2024/01/27 02:21:48;;;;;;;0.90;0.43;;;8.50;42.00;;;;;;5091573;28;20179;-47
2024/01/27 02:24:13;;;;;;;0.90;0.50;;;8.40;42.10;;;;;;5092173;28;20192;-47
2024/01/27 02:26:39;;;;;;;0.80;0.40;;;8.40;42.00;;;;;;5091994;28;20164;-49
2024/01/27 02:29:05;;;;;;;0.80;0.30;;;8.40;41.90;;;;;;5092091;28;20172;-48
2024/01/27 02:31:31;;;;;;;2.80;1.53;;;8.40;41.30;;;;;;5091352;28;20172;-46
2024/01/27 02:33:56;;;;;;;1.67;1.07;;;8.40;41.40;;;;;;5091587;28;20919;-49
2024/01/27 02:36:22;;;;;;;0.83;0.37;;;8.30;41.80;;;;;;5091678;28;21020;-46
2024/01/27 02:38:47;;;;;;;1.00;0.73;;;8.20;41.90;;;;;;5091763;28;20176;-45
2024/01/27 02:41:14;;;;;;;0.87;0.43;;;8.30;42.00;;;;;;5091254;28;20234;-52
2024/01/27 02:43:40;;;;;;;0.90;0.45;;;8.40;41.60;;;;;;5091794;28;20219;-46
2024/01/27 02:46:15;;;;;;;1.00;0.80;;;8.40;41.60;;;;;;5091733;28;20641;-47
2024/01/27 02:48:44;;;;;;;1.70;1.52;;;8.40;41.50;;;;;;5083944;28;20221;-49
2024/01/27 02:51:10;;;;;;;0.80;0.30;;;8.40;41.30;;;;;;5091192;28;20199;-52
2024/01/27 02:53:36;;;;;;;0.80;0.30;;;8.40;41.40;;;;;;5091416;28;20653;-47
2024/01/27 02:56:02;;;;;;;0.90;0.50;;;8.30;41.30;;;;;;5091650;28;20520;-51
2024/01/27 02:58:28;;;;;;;0.90;0.37;;;8.30;41.70;;;;;;5091556;28;20317;-49
2024/01/27 03:00:53;;;;;;;0.90;0.43;;;8.30;41.60;;;;;;5091126;28;20395;-45
2024/01/27 03:03:19;;;;;;;0.80;0.30;;;8.30;41.60;;;;;;5091556;28;20198;-46
2024/01/27 03:05:45;;;;;;;0.90;0.50;;;8.30;41.50;;;;;;5091432;28;20195;-53
2024/01/27 03:08:10;;;;;;;10.90;1.03;;;8.30;41.30;;;;;;5092762;28;20534;-46
2024/01/27 03:10:36;;;;;;;3.30;0.70;;;8.20;41.20;;;;;;5095460;28;20938;-50
2024/01/27 03:13:02;;;;;;;0.80;0.20;;;8.20;41.50;;;;;;5095028;28;20224;-45
2024/01/27 03:15:28;;;;;;;0.80;0.30;;;8.20;41.20;;;;;;5095328;28;20203;-48
2024/01/27 03:17:54;;;;;;;0.90;0.60;;;8.20;41.30;;;;;;5095545;28;20580;-51
2024/01/27 03:20:20;;;;;;;0.90;0.40;;;8.20;41.20;;;;;;5094996;28;20411;-48
2024/01/27 03:22:46;;;;;;;1.03;0.60;;;8.30;40.80;;;;;;5094840;28;20202;-54
2024/01/27 03:25:11;;;;;;;1.43;0.50;;;8.20;41.00;;;;;;5095394;28;20191;-54
2024/01/27 03:27:37;;;;;;;0.80;0.20;;;8.30;40.90;;;;;;5095005;28;20415;-45
2024/01/27 03:30:04;;;;;;;0.93;0.47;;;8.30;40.50;;;;;;5095023;28;20219;-49
2024/01/27 03:32:33;;;;;;;2.95;1.02;;;8.40;40.40;;;;;;5094238;28;20172;-46
2024/01/27 03:34:59;;;;;;;0.80;0.30;;;8.40;40.40;;;;;;5094824;28;20227;-46
2024/01/27 03:37:25;;;;;;;2.17;1.65;;;8.40;40.20;;;;;;5095115;28;20187;-52
2024/01/27 03:39:51;;;;;;;1.27;0.50;;;8.30;40.00;;;;;;5094878;28;20642;-51
2024/01/27 03:42:16;;;;;;;0.80;0.20;;;8.20;40.50;;;;;;5094297;28;20168;-47
2024/01/27 03:44:42;;;;;;;19.03;1.93;;;8.30;40.50;;;;;;5094771;28;20184;-47
2024/01/27 03:47:08;;;;;;;0.80;0.30;;;8.30;40.00;;;;;;5094674;28;20180;-53
2024/01/27 03:49:33;;;;;;;0.90;0.40;;;8.30;40.00;;;;;;5094820;28;20184;-52
2024/01/27 03:51:59;;;;;;;1.37;1.27;;;8.30;39.90;;;;;;5094167;28;20173;-45
2024/01/27 03:54:25;;;;;;;0.87;0.43;;;8.40;39.80;;;;;;5094322;28;20196;-49
2024/01/27 03:56:51;;;;;;;1.40;0.90;;;8.40;39.40;;;;;;5094435;28;20485;-48
2024/01/27 03:59:17;;;;;;;0.90;0.50;;;8.40;39.50;;;;;;5094394;28;20417;-48
2024/01/27 04:01:43;;;;;;;0.80;0.20;;;8.30;39.70;;;;;;5093959;28;20160;-51
2024/01/27 04:04:09;;;;;;;0.83;0.40;;;8.40;40.30;;;;;;5094255;28;20210;-48
2024/01/27 04:06:39;;;;;;;0.80;0.30;;;8.30;39.50;;;;;;5094515;28;20450;-48
2024/01/27 04:09:05;;;;;;;1.60;0.70;;;8.30;39.30;;;;;;5093041;28;20218;-54
2024/01/27 04:11:31;;;;;;;3.88;0.75;;;8.30;39.50;;;;;;5093801;28;20191;-46
2024/01/27 04:13:57;;;;;;;0.87;0.43;;;8.30;38.90;;;;;;5094297;28;20204;-46
2024/01/27 04:16:22;;;;;;;0.97;0.70;;;8.20;39.00;;;;;;5093885;28;20196;-51
2024/01/27 04:18:48;;;;;;;0.80;0.23;;;8.20;39.40;;;;;;5093903;28;20180;-46
2024/01/27 04:21:14;;;;;;;0.90;0.50;;;8.30;39.20;;;;;;5092905;28;20177;-46
2024/01/27 04:23:39;;;;;;;2.00;1.80;;;8.30;39.00;;;;;;5093880;28;20558;-48
2024/01/27 04:26:06;;;;;;;0.80;0.30;;;8.20;39.10;;;;;;5094071;28;20534;-52
2024/01/27 04:28:32;;;;;;;0.90;0.60;;;8.20;39.00;;;;;;5093928;28;20176;-46
2024/01/27 04:30:57;;;;;;;0.90;0.50;;;8.20;39.00;;;;;;5093387;28;20184;-45
2024/01/27 04:33:23;;;;;;;0.80;0.30;;;8.20;38.70;;;;;;5093598;28;20287;-54
2024/01/27 04:35:49;;;;;;;1.40;1.20;;;8.20;38.80;;;;;;5093797;28;20200;-48
2024/01/27 04:38:14;;;;;;;16.30;1.97;;;8.20;39.00;;;;;;5093977;28;20566;-48
2024/01/27 04:40:40;;;;;;;1.00;0.63;;;8.10;38.90;;;;;;5093915;28;20230;-52
2024/01/27 04:43:06;;;;;;;1.67;0.70;;;8.10;39.10;;;;;;5093471;28;20550;-47
2024/01/27 04:45:31;;;;;;;0.90;0.67;;;8.20;39.10;;;;;;5093822;28;20764;-47
2024/01/27 04:47:57;;;;;;;0.90;0.63;;;8.30;38.80;;;;;;5093627;28;20576;-54
2024/01/27 04:50:23;;;;;;;8.10;0.80;;;8.20;38.70;;;;;;5093394;28;20194;-48
2024/01/27 04:52:49;;;;;;;3.20;1.47;;;8.20;38.60;;;;;;5092947;28;20196;-46
2024/01/27 04:55:15;;;;;;;1.60;0.97;;;8.10;38.90;;;;;;5093217;28;20458;-51
2024/01/27 04:57:40;;;;;;;0.93;0.53;;;8.10;38.90;;;;;;5093737;28;20180;-46
2024/01/27 05:00:07;;;;;;;0.90;0.63;;;8.10;38.90;;;;;;5093314;28;20411;-49
2024/01/27 05:02:33;;;;;;;0.90;0.40;;;8.00;38.90;;;;;;5092605;28;20263;-51
2024/01/27 05:04:59;;;;;;;0.80;0.35;;;7.90;39.50;;;;;;5093460;28;20290;-46
2024/01/27 05:07:24;;;;;;;0.90;0.40;;;7.90;39.50;;;;;;5093203;28;20176;-48
2024/01/27 05:09:50;;;;;;;1.87;1.13;;;7.90;39.40;;;;;;5093067;28;20178;-50
2024/01/27 05:12:16;;;;;;;1.67;1.57;;;8.00;39.30;;;;;;5092620;28;20188;-53
2024/01/27 05:14:45;;;;;;;0.93;0.53;;;8.10;39.30;;;;;;5092907;28;20512;-48
2024/01/27 05:17:11;;;;;;;1.30;0.77;;;8.10;39.20;;;;;;5093315;28;20264;-51
2024/01/27 05:19:37;;;;;;;0.90;0.60;;;8.00;39.50;;;;;;5093051;28;20207;-53
2024/01/27 05:22:02;;;;;;;2.80;0.80;;;8.10;39.60;;;;;;5092409;28;20496;-47
2024/01/27 05:24:28;;;;;;;0.80;0.30;;;8.10;39.50;;;;;;5092900;28;20216;-52
2024/01/27 05:26:54;;;;;;;0.90;0.53;;;8.10;39.50;;;;;;5092867;28;20171;-54
2024/01/27 05:29:19;;;;;;;0.97;0.63;;;8.10;39.20;;;;;;5092761;28;20172;-45
2024/01/27 05:31:45;;;;;;;0.90;0.60;;;8.20;39.40;;;;;;5092273;28;20514;-46
2024/01/27 05:34:11;;;;;;;0.87;0.50;;;8.30;39.40;;;;;;5092434;28;20277;-52
2024/01/27 05:36:37;;;;;;;0.90;0.50;;;8.30;39.30;;;;;;5092883;28;20176;-48
2024/01/27 05:39:04;;;;;;;0.90;0.53;;;8.30;39.50;;;;;;5092583;28;20280;-47
2024/01/27 05:41:30;;;;;;;0.90;0.70;;;8.40;39.40;;;;;;5092023;28;20187;-48
2024/01/27 05:43:59;;;;;;;0.90;0.43;;;8.40;39.30;;;;;;5092612;28;20287;-48
2024/01/27 05:46:25;;;;;;;0.90;0.50;;;8.50;39.10;;;;;;5092777;28;20178;-47
2024/01/27 05:48:53;;;;;;;1.00;0.80;;;8.50;39.10;;;;;;5092571;28;20173;-45
2024/01/27 05:51:20;;;;;;;3.42;0.88;;;8.50;39.30;;;;;;5092088;28;20180;-46
2024/01/27 05:53:46;;;;;;;0.90;0.55;;;8.60;39.10;;;;;;5092425;28;20223;-47
2024/01/27 05:56:12;;;;;;;0.90;0.70;;;8.50;39.10;;;;;;5092239;28;20188;-48
2024/01/27 05:58:38;;;;;;;1.00;0.70;;;8.60;39.10;;;;;;5092148;28;20172;-49
2024/01/27 06:01:04;;;;;;;0.90;0.70;;;8.60;39.10;;;;;;5091743;28;20430;-45
2024/01/27 06:03:31;;;;;;;1.00;0.85;;;8.50;38.90;;;;;;5092543;28;20608;-50
2024/01/27 06:05:56;;;;;;;0.90;0.60;;;8.50;39.20;;;;;;5092407;28;20180;-53
2024/01/27 06:08:22;;;;;;;0.90;0.63;;;8.60;39.20;;;;;;5092162;28;20550;-45
2024/01/27 06:10:48;;;;;;;0.90;0.50;;;8.60;39.30;;;;;;5092348;28;20168;-48
2024/01/27 06:13:13;;;;;;;0.90;0.50;;;8.50;39.10;;;;;;5091869;28;20198;-52
2024/01/27 06:15:39;;;;;;;0.80;0.40;;;8.50;39.50;;;;;;5092042;28;20963;-46
2024/01/27 06:18:05;;;;;;;0.90;0.60;;;8.50;39.30;;;;;;5092042;28;20173;-49
2024/01/27 06:20:31;;;;;;;4.43;1.35;;;8.50;39.30;;;;;;5092238;28;20252;-52
2024/01/27 06:22:57;;;;;;;0.90;0.60;;;8.50;39.40;;;;;;5091447;28;20287;-47
2024/01/27 06:25:23;;;;;;;1.10;0.93;;;8.50;39.30;;;;;;5091779;28;20179;-53
2024/01/27 06:27:49;;;;;;;5.00;1.13;;;8.50;39.20;;;;;;5091939;28;20169;-48
2024/01/27 06:30:15;;;;;;;0.90;0.40;;;8.50;39.30;;;;;;5091993;28;20184;-50
2024/01/27 06:32:42;;;;;;;0.80;0.40;;;8.50;39.30;;;;;;5091335;28;20220;-49
2024/01/27 06:35:08;;;;;;;1.63;0.98;;;8.50;39.30;;;;;;5092018;28;20543;-45
2024/01/27 06:37:34;;;;;;;0.90;0.40;;;8.50;39.50;;;;;;5091761;28;20654;-53
2024/01/27 06:39:59;;;;;;;1.00;0.67;;;8.60;39.00;;;;;;5091877;28;20207;-45
2024/01/27 06:42:25;;;;;;;2.17;1.20;;;8.60;39.40;;;;;;5091248;28;20173;-53
2024/01/27 06:44:51;;;;;;;0.90;0.40;;;8.60;39.10;;;;;;5095618;28;20176;-52
2024/01/27 06:47:16;;;;;;;1.00;0.63;;;8.60;39.30;;;;;;5096104;28;20180;-45
2024/01/27 06:49:42;;;;;;;0.90;0.60;;;8.60;38.90;;;;;;5095918;28;20584;-51
2024/01/27 06:52:08;;;;;;;0.80;0.43;;;8.60;39.20;;;;;;5095292;28;20646;-54
2024/01/27 06:54:33;;;;;;;1.67;1.23;;;8.60;39.30;;;;;;5095482;28;20208;-46
2024/01/27 06:57:00;;;;;;;11.87;1.30;;;8.60;39.20;;;;;;5095976;28;20176;-50
2024/01/27 06:59:26;;;;;;;0.93;0.65;;;8.60;39.10;;;;;;5095494;28;20173;-51
2024/01/27 07:01:52;;;;;;;0.90;0.47;;;8.60;39.10;;;;;;5095301;28;20179;-47
2024/01/27 07:04:17;;;;;;;0.90;0.40;;;8.60;39.10;;;;;;5095431;28;20562;-47
2024/01/27 07:06:44;;;;;;;0.80;0.40;;;8.50;39.40;;;;;;5095550;28;20165;-51
2024/01/27 07:09:11;;;;;;;0.90;0.55;;;8.50;39.60;;;;;;5095772;28;20192;-52
2024/01/27 07:11:37;;;;;;;1.00;0.68;;;8.40;39.60;;;;;;5094839;28;20169;-45
2024/01/27 07:14:03;;;;;;;1.52;1.08;;;8.50;39.80;;;;;;5095273;28;20193;-50
2024/01/27 07:16:29;;;;;;;0.80;0.30;;;8.50;39.60;;;;;;5095239;28;20734;-45
2024/01/27 07:18:55;;;;;;;1.00;0.77;;;8.50;39.50;;;;;;5095322;28;20290;-49
2024/01/27 07:21:21;;;;;;;0.90;0.53;;;8.40;39.80;;;;;;5094641;28;20180;-48
2024/01/27 07:23:46;;;;;;;1.60;1.30;;;8.50;39.80;;;;;;5095358;28;20192;-46
2024/01/27 07:26:12;;;;;;;0.90;0.40;;;8.60;39.80;;;;;;5095051;28;20638;-48
2024/01/27 07:28:38;;;;;;;0.90;0.40;;;8.60;39.60;;;;;;5095303;28;20180;-52
2024/01/27 07:31:05;;;;;;;0.93;0.35;;;8.60;39.70;;;;;;5094558;28;20184;-49
2024/01/27 07:33:31;;;;;;;0.80;0.40;;;8.60;39.40;;;;;;5094783;28;20317;-45
2024/01/27 07:35:57;;;;;;;2.10;1.07;;;8.60;39.50;;;;;;5095740;28;20717;-51
2024/01/27 07:38:22;;;;;;;1.75;0.93;;;8.60;39.60;;;;;;5096336;28;20485;-53
2024/01/27 07:40:48;;;;;;;0.90;0.43;;;8.50;40.00;;;;;;5096385;28;20268;-46
2024/01/27 07:43:14;;;;;;;1.10;0.93;;;8.60;39.80;;;;;;5095778;28;20192;-54
2024/01/27 07:45:40;;;;;;;7.43;0.87;;;8.60;39.80;;;;;;5096114;28;20660;-48
2024/01/27 07:48:07;;;;;;;0.80;0.40;;;8.70;39.70;;;;;;5095705;28;20221;-52
2024/01/27 07:50:33;;;;;;;0.90;0.50;;;8.70;39.60;;;;;;5094608;28;20410;-54
2024/01/27 07:52:59;;;;;;;0.90;0.40;;;8.70;39.80;;;;;;5094146;28;20231;-48
2024/01/27 07:55:25;;;;;;;1.15;0.68;;;8.70;39.70;;;;;;5094344;28;20200;-54
2024/01/27 07:57:50;;;;;;;0.80;0.30;;;8.70;39.60;;;;;;5094575;28;20195;-49
2024/01/27 08:00:16;;;;;;;0.83;0.43;;;8.70;39.90;;;;;;5094686;28;20254;-46
2024/01/27 08:02:42;;;;;;;1.53;0.63;;;8.80;39.80;;;;;;5094039;28;20173;-52
2024/01/27 08:05:08;;;;;;;0.90;0.50;;;8.90;39.90;;;;;;5094337;28;20571;-47
2024/01/27 08:07:34;;;;;;;0.80;0.30;;;8.90;39.60;;;;;;5094344;28;20889;-51
2024/01/27 08:10:00;;;;;;;1.00;0.60;;;8.90;39.80;;;;;;5094324;28;20297;-46
2024/01/27 08:12:25;;;;;;;0.90;0.53;;;8.90;39.70;;;;;;5093746;28;20634;-47
2024/01/27 08:14:51;;;;;;;1.93;1.70;;;8.90;39.60;;;;;;5094316;28;20277;-50
2024/01/27 08:17:17;;;;;;;0.80;0.35;;;9.00;39.70;;;;;;5094312;28;20491;-47
2024/01/27 08:19:43;;;;;;;1.00;0.60;;;8.90;39.60;;;;;;5094135;28;20215;-52
2024/01/27 08:22:09;;;;;;;0.90;0.47;;;8.70;40.00;;;;;;5093936;28;20173;-49
2024/01/27 08:24:35;;;;;;;0.80;0.37;;;8.80;40.20;;;;;;5093741;28;20666;-50
2024/01/27 08:27:01;;;;;;;1.25;0.70;;;8.80;40.20;;;;;;5094090;28;20772;-53
2024/01/27 08:29:27;;;;;;;0.90;0.40;;;8.90;40.20;;;;;;5094215;28;20410;-52
2024/01/27 08:31:52;;;;;;;0.90;0.60;;;8.90;40.20;;;;;;5093451;28;20196;-45
2024/01/27 08:34:18;;;;;;;1.20;0.40;;;8.90;40.10;;;;;;5093250;28;20478;-53
2024/01/27 08:36:44;;;;;;;0.80;0.30;;;9.00;40.00;;;;;;5093731;28;20707;-46
2024/01/27 08:39:12;;;;;;;1.27;1.10;;;9.00;40.00;;;;;;5094043;28;20207;-47
2024/01/27 08:41:37;;;;;;;1.20;0.68;;;9.00;39.80;;;;;;5093236;28;20264;-48
2024/01/27 08:44:03;;;;;;;1.73;0.63;;;9.00;40.00;;;;;;5093754;28;20271;-48
2024/01/27 08:46:29;;;;;;;1.10;0.80;;;9.10;39.90;;;;;;5093683;28;20187;-53
2024/01/27 08:48:54;;;;;;;0.80;0.33;;;9.10;39.80;;;;;;5093558;28;20800;-45
2024/01/27 08:51:20;;;;;;;9.83;2.07;;;9.20;39.50;;;;;;5092952;28;20172;-47
2024/01/27 08:53:48;;;;;;;0.90;0.43;;;9.10;39.80;;;;;;5093308;28;20274;-53
2024/01/27 08:56:17;;;;;;;1.35;0.82;;;9.00;39.80;;;;;;5093541;28;20204;-48
2024/01/27 08:58:49;;;;;;;1.27;0.60;;;9.10;40.00;;;;;;5093397;28;20244;-49
2024/01/27 09:01:18;;;;;;;0.90;0.40;;;9.10;39.90;;;;;;5092792;28;20169;-54
2024/01/27 09:03:44;;;;;;;0.90;0.45;;;9.10;39.90;;;;;;5093079;28;20204;-47
2024/01/27 09:06:10;;;;;;;0.80;0.30;;;9.10;40.00;;;;;;5092475;28;20175;-53
2024/01/27 09:08:36;;;;;;;8.00;1.13;;;9.20;39.90;;;;;;5093077;28;20184;-53
2024/01/27 09:11:03;;;;;;;3.38;1.58;;;9.20;39.70;;;;;;5092893;28;20181;-47
2024/01/27 09:13:28;;;;;;;0.80;0.38;;;9.20;40.00;;;;;;5092999;28;20196;-48
2024/01/27 09:15:55;;;;;;;0.90;0.40;;;9.20;39.60;;;;;;5093059;28;20200;-51
2024/01/27 09:18:20;;;;;;;1.75;1.55;;;9.20;39.60;;;;;;5092935;28;20417;-54
2024/01/27 09:20:46;;;;;;;0.80;0.30;;;9.30;39.80;;;;;;5092875;28;20176;-49
2024/01/27 09:23:12;;;;;;;0.80;0.37;;;9.20;39.90;;;;;;5092457;28;20200;-52
2024/01/27 09:25:39;;;;;;;20.13;1.50;;;9.30;40.00;;;;;;5093024;28;20168;-49
2024/01/27 09:28:04;;;;;;;1.08;0.40;;;9.30;39.50;;;;;;5093112;28;20184;-48
2024/01/27 09:30:30;;;;;;;0.90;0.43;;;9.30;39.90;;;;;;5092967;28;20523;-51
2024/01/27 09:32:56;;;;;;;0.80;0.20;;;9.30;39.80;;;;;;5092044;28;20208;-50
2024/01/27 09:35:21;;;;;;;0.90;0.30;;;9.40;39.80;;;;;;5092437;28;20242;-49
2024/01/27 09:37:47;;;;;;;4.00;2.20;;;9.50;39.50;;;;;;5092709;28;20165;-51
2024/01/27 09:40:13;;;;;;;5.60;1.20;;;9.50;39.30;;;;;;5092806;28;20221;-52
2024/01/27 09:42:41;;;;;;;1.33;0.50;;;9.60;39.40;;;;;;5092057;28;20646;-45
2024/01/27 09:45:09;;;;;;;2.85;0.63;;;9.60;39.50;;;;;;5092345;28;20828;-53
2024/01/27 09:47:36;;;;;;;2.75;1.08;;;9.60;39.60;;;;;;5092353;28;20530;-53
2024/01/27 09:50:02;;;;;;;6.10;1.98;;;9.60;38.90;;;;;;5092353;28;20617;-48
2024/01/27 09:52:28;;;;;;;0.90;0.53;;;9.60;39.40;;;;;;5091881;28;20189;-47
2024/01/27 09:54:54;;;;;;;0.90;0.43;;;9.70;39.30;;;;;;5092605;28;20457;-53
2024/01/27 09:57:20;;;;;;;5.10;1.33;;;9.70;39.10;;;;;;5092337;28;20180;-49
2024/01/27 09:59:49;;;;;;;1.60;1.50;;;9.70;39.40;;;;;;5083945;28;20172;-47
2024/01/27 10:02:17;;;;;;;1.20;0.90;;;9.60;39.20;;;;;;5091597;28;20176;-46
2024/01/27 10:04:45;;;;;;;1.23;0.65;;;9.60;39.30;;;;;;5090830;28;20237;-46
2024/01/27 10:07:11;;;;;;;0.93;0.65;;;9.70;39.60;;;;;;5092512;28;20259;-48
2024/01/27 10:09:36;;;;;;;1.30;0.70;;;9.70;39.10;;;;;;5092195;28;20253;-52
2024/01/27 10:12:03;;;;;;;1.83;1.00;;;9.70;39.10;;;;;;5091739;28;20177;-46
2024/01/27 10:14:39;;;;;;;0.98;0.65;;;9.70;39.50;;;;;;5091700;28;20197;-51
2024/01/27 10:17:05;;;;;;;0.82;0.30;;;9.80;38.90;;;;;;5092179;28;20172;-45
2024/01/27 10:19:30;;;;;;;0.90;0.63;;;9.80;39.40;;;;;;5091995;28;20175;-49
2024/01/27 10:22:02;;;;;;;0.80;0.30;;;9.80;39.20;;;;;;5091660;28;20414;-55
2024/01/27 10:24:29;;;;;;;2.17;0.70;;;9.90;39.40;;;;;;5091917;28;20200;-47
2024/01/27 10:27:04;;;;;;;1.50;0.80;;;9.90;39.10;;;;;;5091927;28;20255;-47
2024/01/27 10:29:30;;;;;;;3.72;1.55;;;9.90;38.80;;;;;;5091766;28;20168;-50
2024/01/27 10:32:08;;;;;;;3.17;0.50;;;9.80;39.20;;;;;;5091521;28;20229;-46
2024/01/27 10:34:34;;;;;;;4.05;1.25;;;10.00;39.30;;;;;;5091535;28;20212;-48
2024/01/27 10:36:59;;;;;;;0.90;0.43;;;10.00;39.10;;;;;;5091948;28;20187;-50
2024/01/27 10:39:25;;;;;;;1.67;1.57;;;10.20;38.90;;;;;;5091875;28;20176;-52
2024/01/27 10:41:51;;;;;;;3.20;1.50;;;10.50;39.00;;;;;;5091187;28;20168;-48
2024/01/27 10:44:19;;;;;;;1.45;0.80;;;10.70;38.10;;;;;;5091546;28;20232;-50
2024/01/27 10:46:49;;;;;;;1.08;0.80;;;10.70;37.30;;;;;;5091878;28;20574;-52
2024/01/27 10:49:16;;;;;;;0.85;0.38;;;10.60;37.50;;;;;;5091948;28;20216;-47
2024/01/27 10:52:02;;;;;;;1.30;0.80;;;10.40;37.80;;;;;;5091166;28;20265;-45
2024/01/27 10:54:29;;;;;;;13.40;1.00;;;10.40;38.20;;;;;;5091579;28;20207;-52
2024/01/27 10:56:58;;;;;;;0.90;0.50;;;10.40;38.40;;;;;;5091819;28;20187;-47
2024/01/27 10:59:26;;;;;;;1.00;0.70;;;10.50;38.30;;;;;;5091790;28;20164;-48
2024/01/27 11:01:53;;;;;;;2.40;1.75;;;10.50;38.00;;;;;;5091213;28;20179;-53
2024/01/27 11:04:22;;;;;;;0.93;0.45;;;10.60;38.20;;;;;;5091386;28;20197;-53
2024/01/27 11:06:48;;;;;;;1.00;0.73;;;10.60;38.10;;;;;;5091716;28;20169;-46
2024/01/27 11:09:14;;;;;;;2.08;1.20;;;10.70;38.10;;;;;;5091485;28;20187;-53
2024/01/27 11:11:45;;;;;;;1.00;0.70;;;10.80;37.90;;;;;;5091162;28;20181;-53
2024/01/27 11:14:11;;;;;;;2.80;1.88;;;10.80;37.80;;;;;;5091457;28;20434;-45
2024/01/27 11:16:45;;;;;;;1.48;1.23;;;10.80;37.70;;;;;;5091339;28;20196;-53
2024/01/27 11:19:12;;;;;;;4.40;0.73;;;10.70;38.00;;;;;;5091506;28;20637;-52
2024/01/27 11:21:38;;;;;;;1.05;0.50;;;10.60;38.30;;;;;;5091087;28;20179;-47
2024/01/27 11:24:16;;;;;;;1.00;0.60;;;10.60;37.50;;;;;;5091284;28;20275;-55
2024/01/27 11:26:42;;;;;;;4.60;1.67;;;10.70;38.20;;;;;;5091290;28;20891;-45
2024/01/27 11:29:09;;;;;;;0.90;0.40;;;10.90;38.20;;;;;;5092293;28;20191;-49
2024/01/27 11:31:35;;;;;;;1.27;0.98;;;10.80;37.80;;;;;;5094595;28;21025;-45
2024/01/27 11:34:01;;;;;;;2.17;1.23;;;10.80;37.50;;;;;;5094848;28;20707;-51
2024/01/27 11:36:27;;;;;;;3.30;1.10;;;10.90;38.00;;;;;;5095094;28;20525;-46
2024/01/27 11:38:53;;;;;;;0.90;0.47;;;11.00;37.10;;;;;;5095261;28;20160;-54
2024/01/27 11:41:29;;;;;;;11.45;2.45;;;11.20;37.70;;;;;;5094688;28;20647;-52
2024/01/27 11:43:57;;;;;;;1.23;0.88;;;11.50;36.50;;;;;;5094754;28;20270;-46
2024/01/27 11:46:26;;;;;;;5.50;0.93;;;11.60;36.70;;;;;;5094575;28;20210;-45
2024/01/27 11:48:51;;;;;;;1.20;0.60;;;11.70;36.30;;;;;;5094792;28;20719;-52
2024/01/27 11:51:19;;;;;;;1.40;1.00;;;11.70;36.00;;;;;;5094153;28;20196;-47
2024/01/27 11:53:45;;;;;;;1.00;0.60;;;11.70;36.60;;;;;;5094742;28;20200;-46
2024/01/27 11:56:11;;;;;;;1.20;0.60;;;11.70;36.80;;;;;;5094671;28;20620;-52
2024/01/27 11:58:36;;;;;;;1.25;0.60;;;11.80;35.80;;;;;;5094779;28;20403;-46
2024/01/27 12:01:02;;;;;;;1.20;0.57;;;11.80;36.00;;;;;;5094004;28;20656;-49
2024/01/27 12:03:29;;;;;;;1.67;1.27;;;11.70;36.20;;;;;;5094387;28;20203;-53
2024/01/27 12:05:55;;;;;;;1.23;0.57;;;11.60;36.10;;;;;;5094332;28;20923;-47
2024/01/27 12:08:21;;;;;;;2.13;0.83;;;11.60;36.20;;;;;;5094421;28;20181;-53
2024/01/27 12:10:46;;;;;;;1.20;0.60;;;11.60;36.10;;;;;;5094242;28;20932;-54
2024/01/27 12:13:12;;;;;;;1.10;0.50;;;12.00;36.40;;;;;;5094059;28;20294;-48
2024/01/27 12:15:38;;;;;;;2.17;1.70;;;12.30;35.90;;;;;;5094119;28;20684;-50
2024/01/27 12:18:05;;;;;;;3.70;1.73;;;13.10;35.70;;;;;;5094484;28;20406;-55
2024/01/27 12:20:30;;;;;;;1.50;1.25;;;13.90;34.70;;;;;;5093935;28;20413;-52
2024/01/27 12:23:03;;;;;;;22.37;2.33;;;14.20;33.30;;;;;;5093485;28;20192;-48
2024/01/27 12:25:29;;;;;;;7.55;1.17;;;14.40;31.30;;;;;;5093981;28;20255;-53
2024/01/27 12:27:54;;;;;;;1.33;0.60;;;14.30;33.10;;;;;;5094091;28;20776;-48
2024/01/27 12:30:21;;;;;;;1.90;1.70;;;14.40;32.10;;;;;;5093769;28;20191;-54
2024/01/27 12:32:47;;;;;;;1.65;1.00;;;14.20;31.90;;;;;;5093147;28;20328;-54
2024/01/27 12:35:13;;;;;;;1.10;0.57;;;14.10;32.00;;;;;;5093728;28;20207;-47
2024/01/27 12:37:39;;;;;;;1.10;0.50;;;14.10;32.10;;;;;;5093708;28;20177;-47
2024/01/27 12:40:25;;;;;;;0.87;0.30;;;14.10;31.70;;;;;;5093377;28;20498;-48
2024/01/27 12:42:51;;;;;;;4.20;0.98;;;14.40;31.70;;;;;;5092671;28;20509;-53
2024/01/27 12:45:18;;;;;;;1.00;0.53;;;14.80;30.30;;;;;;5093836;28;20208;-48
2024/01/27 12:47:44;;;;;;;1.70;0.85;;;15.20;30.30;;;;;;5093820;28;20195;-48
2024/01/27 12:50:10;;;;;;;10.70;1.55;;;15.70;28.70;;;;;;5093585;28;20180;-53